sensor_id;sensor_type;location;lat;lon;timestamp;P1;durP1;ratioP1;P2;durP2;ratioP2
73120;SDS011;61307;49.628;-1.624;2023-05-28T00:00:25;9.57;;;4.00;;
73120;SDS011;61307;49.628;-1.624;2023-05-28T00:02:53;8.45;;;3.60;;
73120;SDS011;61307;49.628;-1.624;2023-05-28T00:05:21;9.18;;;3.40;;
73120;SDS011;61307;49.628;-1.624;2023-05-28T00:07:48;8.40;;;3.72;;
73120;SDS011;61307;49.628;-1.624;2023-05-28T00:10:15;10.77;;;3.92;;
73120;SDS011;61307;49.628;-1.624;2023-05-28T00:12:42;9.07;;;3.67;;
73120;SDS011;61307;49.628;-1.624;2023-05-28T00:15:09;9.90;;;3.88;;
73120;SDS011;61307;49.628;-1.624;2023-05-28T00:17:36;11.07;;;3.88;;
73120;SDS011;61307;49.628;-1.624;2023-05-28T00:20:05;12.95;;;4.47;;
73120;SDS011;61307;49.628;-1.624;2023-05-28T00:22:33;8.82;;;3.75;;
73120;SDS011;61307;49.628;-1.624;2023-05-28T00:25:00;7.32;;;3.40;;
73120;SDS011;61307;49.628;-1.624;2023-05-28T00:27:27;12.40;;;4.35;;
73120;SDS011;61307;49.628;-1.624;2023-05-28T00:29:54;8.90;;;3.83;;
73120;SDS011;61307;49.628;-1.624;2023-05-28T00:32:21;8.32;;;3.90;;
73120;SDS011;61307;49.628;-1.624;2023-05-28T00:34:47;9.93;;;3.78;;
73120;SDS011;61307;49.628;-1.624;2023-05-28T00:37:16;6.50;;;3.47;;
73120;SDS011;61307;49.628;-1.624;2023-05-28T00:39:43;7.65;;;3.65;;
73120;SDS011;61307;49.628;-1.624;2023-05-28T00:42:10;7.88;;;4.13;;
73120;SDS011;61307;49.628;-1.624;2023-05-28T00:44:37;11.23;;;3.72;;
73120;SDS011;61307;49.628;-1.624;2023-05-28T00:47:04;7.35;;;3.22;;
73120;SDS011;61307;49.628;-1.624;2023-05-28T00:49:32;8.00;;;3.63;;
73120;SDS011;61307;49.628;-1.624;2023-05-28T00:52:00;7.43;;;3.20;;
73120;SDS011;61307;49.628;-1.624;2023-05-28T00:54:30;7.88;;;3.13;;
73120;SDS011;61307;49.628;-1.624;2023-05-28T00:56:58;7.82;;;3.30;;
73120;SDS011;61307;49.628;-1.624;2023-05-28T00:59:26;8.10;;;3.53;;
73120;SDS011;61307;49.628;-1.624;2023-05-28T01:01:53;6.38;;;3.42;;
73120;SDS011;61307;49.628;-1.624;2023-05-28T01:04:21;13.07;;;4.22;;
73120;SDS011;61307;49.628;-1.624;2023-05-28T01:06:49;9.88;;;3.50;;
73120;SDS011;61307;49.628;-1.624;2023-05-28T01:09:16;11.35;;;4.18;;
73120;SDS011;61307;49.628;-1.624;2023-05-28T01:11:45;6.75;;;3.33;;
73120;SDS011;61307;49.628;-1.624;2023-05-28T01:14:16;9.95;;;3.53;;
73120;SDS011;61307;49.628;-1.624;2023-05-28T01:16:44;7.10;;;3.25;;
73120;SDS011;61307;49.628;-1.624;2023-05-28T01:19:11;9.63;;;3.72;;
73120;SDS011;61307;49.628;-1.624;2023-05-28T01:21:44;6.65;;;3.65;;
73120;SDS011;61307;49.628;-1.624;2023-05-28T01:24:13;8.13;;;3.20;;
73120;SDS011;61307;49.628;-1.624;2023-05-28T01:26:41;7.05;;;3.47;;
73120;SDS011;61307;49.628;-1.624;2023-05-28T01:29:15;13.65;;;4.13;;
73120;SDS011;61307;49.628;-1.624;2023-05-28T01:31:43;7.78;;;3.10;;
73120;SDS011;61307;49.628;-1.624;2023-05-28T01:34:10;8.43;;;3.17;;
73120;SDS011;61307;49.628;-1.624;2023-05-28T01:36:40;9.93;;;3.83;;
73120;SDS011;61307;49.628;-1.624;2023-05-28T01:39:11;7.10;;;3.15;;
73120;SDS011;61307;49.628;-1.624;2023-05-28T01:41:44;7.20;;;3.35;;
73120;SDS011;61307;49.628;-1.624;2023-05-28T01:44:12;8.13;;;3.50;;
73120;SDS011;61307;49.628;-1.624;2023-05-28T01:46:42;8.90;;;3.20;;
73120;SDS011;61307;49.628;-1.624;2023-05-28T01:49:10;6.13;;;3.15;;
73120;SDS011;61307;49.628;-1.624;2023-05-28T01:51:37;6.80;;;3.30;;
73120;SDS011;61307;49.628;-1.624;2023-05-28T01:54:04;10.52;;;3.60;;
73120;SDS011;61307;49.628;-1.624;2023-05-28T01:56:33;7.70;;;3.28;;
73120;SDS011;61307;49.628;-1.624;2023-05-28T01:59:00;11.65;;;3.63;;
73120;SDS011;61307;49.628;-1.624;2023-05-28T02:01:27;7.57;;;3.55;;
73120;SDS011;61307;49.628;-1.624;2023-05-28T02:03:55;5.38;;;3.20;;
73120;SDS011;61307;49.628;-1.624;2023-05-28T02:06:22;6.05;;;2.97;;
73120;SDS011;61307;49.628;-1.624;2023-05-28T02:08:50;6.85;;;3.63;;
73120;SDS011;61307;49.628;-1.624;2023-05-28T02:11:17;7.40;;;3.22;;
73120;SDS011;61307;49.628;-1.624;2023-05-28T02:13:48;7.75;;;2.90;;
73120;SDS011;61307;49.628;-1.624;2023-05-28T02:16:15;7.82;;;3.75;;
73120;SDS011;61307;49.628;-1.624;2023-05-28T02:18:42;7.45;;;3.25;;
73120;SDS011;61307;49.628;-1.624;2023-05-28T02:21:09;7.20;;;3.20;;
73120;SDS011;61307;49.628;-1.624;2023-05-28T02:23:37;6.50;;;3.00;;
73120;SDS011;61307;49.628;-1.624;2023-05-28T02:26:05;5.70;;;2.97;;
73120;SDS011;61307;49.628;-1.624;2023-05-28T02:28:32;7.22;;;2.97;;
73120;SDS011;61307;49.628;-1.624;2023-05-28T02:31:00;6.28;;;3.53;;
73120;SDS011;61307;49.628;-1.624;2023-05-28T02:33:27;8.63;;;3.30;;
73120;SDS011;61307;49.628;-1.624;2023-05-28T02:35:54;8.77;;;3.03;;
73120;SDS011;61307;49.628;-1.624;2023-05-28T02:38:21;6.72;;;2.90;;
73120;SDS011;61307;49.628;-1.624;2023-05-28T02:40:48;6.90;;;3.30;;
73120;SDS011;61307;49.628;-1.624;2023-05-28T02:43:15;7.80;;;3.17;;
73120;SDS011;61307;49.628;-1.624;2023-05-28T02:45:42;6.07;;;3.00;;
73120;SDS011;61307;49.628;-1.624;2023-05-28T02:48:11;10.68;;;3.15;;
73120;SDS011;61307;49.628;-1.624;2023-05-28T02:50:38;8.40;;;3.13;;
73120;SDS011;61307;49.628;-1.624;2023-05-28T02:53:04;7.00;;;3.15;;
73120;SDS011;61307;49.628;-1.624;2023-05-28T02:55:31;8.48;;;3.25;;
73120;SDS011;61307;49.628;-1.624;2023-05-28T02:57:58;8.40;;;3.78;;
73120;SDS011;61307;49.628;-1.624;2023-05-28T03:00:25;5.65;;;2.92;;
73120;SDS011;61307;49.628;-1.624;2023-05-28T03:02:53;7.78;;;2.88;;
73120;SDS011;61307;49.628;-1.624;2023-05-28T03:05:21;7.05;;;3.20;;
73120;SDS011;61307;49.628;-1.624;2023-05-28T03:07:48;7.32;;;2.70;;
73120;SDS011;61307;49.628;-1.624;2023-05-28T03:10:16;7.07;;;2.90;;
73120;SDS011;61307;49.628;-1.624;2023-05-28T03:12:43;7.43;;;3.00;;
73120;SDS011;61307;49.628;-1.624;2023-05-28T03:15:09;6.18;;;2.88;;
73120;SDS011;61307;49.628;-1.624;2023-05-28T03:17:36;4.72;;;2.70;;
73120;SDS011;61307;49.628;-1.624;2023-05-28T03:20:04;6.22;;;3.08;;
73120;SDS011;61307;49.628;-1.624;2023-05-28T03:22:34;6.97;;;2.95;;
73120;SDS011;61307;49.628;-1.624;2023-05-28T03:25:01;4.55;;;2.53;;
73120;SDS011;61307;49.628;-1.624;2023-05-28T03:27:29;6.78;;;2.63;;
73120;SDS011;61307;49.628;-1.624;2023-05-28T03:29:56;5.75;;;2.67;;
73120;SDS011;61307;49.628;-1.624;2023-05-28T03:32:22;5.35;;;2.85;;
73120;SDS011;61307;49.628;-1.624;2023-05-28T03:34:49;10.25;;;3.45;;
73120;SDS011;61307;49.628;-1.624;2023-05-28T03:37:16;9.25;;;2.92;;
73120;SDS011;61307;49.628;-1.624;2023-05-28T03:39:45;6.90;;;2.90;;
73120;SDS011;61307;49.628;-1.624;2023-05-28T03:42:12;7.85;;;2.85;;
73120;SDS011;61307;49.628;-1.624;2023-05-28T03:44:38;7.28;;;3.05;;
73120;SDS011;61307;49.628;-1.624;2023-05-28T03:47:05;7.32;;;3.38;;
73120;SDS011;61307;49.628;-1.624;2023-05-28T03:49:32;7.43;;;2.92;;
73120;SDS011;61307;49.628;-1.624;2023-05-28T03:51:59;5.90;;;2.67;;
73120;SDS011;61307;49.628;-1.624;2023-05-28T03:54:26;4.10;;;2.50;;
73120;SDS011;61307;49.628;-1.624;2023-05-28T03:56:55;5.22;;;2.83;;
73120;SDS011;61307;49.628;-1.624;2023-05-28T03:59:22;5.05;;;2.50;;
73120;SDS011;61307;49.628;-1.624;2023-05-28T04:01:49;6.15;;;2.80;;
73120;SDS011;61307;49.628;-1.624;2023-05-28T04:04:16;7.75;;;2.95;;
73120;SDS011;61307;49.628;-1.624;2023-05-28T04:06:42;6.95;;;2.85;;
73120;SDS011;61307;49.628;-1.624;2023-05-28T04:09:09;5.93;;;2.70;;
73120;SDS011;61307;49.628;-1.624;2023-05-28T04:11:36;5.82;;;2.90;;
73120;SDS011;61307;49.628;-1.624;2023-05-28T04:14:05;7.78;;;3.00;;
73120;SDS011;61307;49.628;-1.624;2023-05-28T04:16:34;5.68;;;2.72;;
73120;SDS011;61307;49.628;-1.624;2023-05-28T04:19:01;6.78;;;3.03;;
73120;SDS011;61307;49.628;-1.624;2023-05-28T04:21:28;5.90;;;2.65;;
73120;SDS011;61307;49.628;-1.624;2023-05-28T04:23:55;6.43;;;2.83;;
73120;SDS011;61307;49.628;-1.624;2023-05-28T04:26:22;6.60;;;2.90;;
73120;SDS011;61307;49.628;-1.624;2023-05-28T04:28:50;4.90;;;2.70;;
73120;SDS011;61307;49.628;-1.624;2023-05-28T04:31:19;5.68;;;2.80;;
73120;SDS011;61307;49.628;-1.624;2023-05-28T04:33:46;6.95;;;2.97;;
73120;SDS011;61307;49.628;-1.624;2023-05-28T04:36:13;5.93;;;2.90;;
73120;SDS011;61307;49.628;-1.624;2023-05-28T04:38:40;8.82;;;2.75;;
73120;SDS011;61307;49.628;-1.624;2023-05-28T04:41:07;5.95;;;3.05;;
73120;SDS011;61307;49.628;-1.624;2023-05-28T04:43:34;8.10;;;3.17;;
73120;SDS011;61307;49.628;-1.624;2023-05-28T04:46:01;5.18;;;2.72;;
73120;SDS011;61307;49.628;-1.624;2023-05-28T04:48:31;5.75;;;2.80;;
73120;SDS011;61307;49.628;-1.624;2023-05-28T04:51:00;5.75;;;2.80;;
73120;SDS011;61307;49.628;-1.624;2023-05-28T04:53:28;9.93;;;3.33;;
73120;SDS011;61307;49.628;-1.624;2023-05-28T04:55:56;6.35;;;3.00;;
73120;SDS011;61307;49.628;-1.624;2023-05-28T04:58:23;7.82;;;3.08;;
73120;SDS011;61307;49.628;-1.624;2023-05-28T05:00:50;5.00;;;2.60;;
73120;SDS011;61307;49.628;-1.624;2023-05-28T05:03:17;3.97;;;2.72;;
73120;SDS011;61307;49.628;-1.624;2023-05-28T05:05:45;5.15;;;2.20;;
73120;SDS011;61307;49.628;-1.624;2023-05-28T05:08:12;7.07;;;2.83;;
73120;SDS011;61307;49.628;-1.624;2023-05-28T05:10:39;8.88;;;3.00;;
73120;SDS011;61307;49.628;-1.624;2023-05-28T05:13:06;6.53;;;3.00;;
73120;SDS011;61307;49.628;-1.624;2023-05-28T05:15:33;4.88;;;2.70;;
73120;SDS011;61307;49.628;-1.624;2023-05-28T05:18:00;5.55;;;2.72;;
73120;SDS011;61307;49.628;-1.624;2023-05-28T05:20:27;6.40;;;2.80;;
73120;SDS011;61307;49.628;-1.624;2023-05-28T05:22:56;6.55;;;2.80;;
73120;SDS011;61307;49.628;-1.624;2023-05-28T05:25:23;8.73;;;3.28;;
73120;SDS011;61307;49.628;-1.624;2023-05-28T05:27:50;6.95;;;2.95;;
73120;SDS011;61307;49.628;-1.624;2023-05-28T05:30:17;4.60;;;2.72;;
73120;SDS011;61307;49.628;-1.624;2023-05-28T05:32:44;7.70;;;3.17;;
73120;SDS011;61307;49.628;-1.624;2023-05-28T05:35:11;7.97;;;3.40;;
73120;SDS011;61307;49.628;-1.624;2023-05-28T05:37:38;4.90;;;2.63;;
73120;SDS011;61307;49.628;-1.624;2023-05-28T05:40:07;7.40;;;3.00;;
73120;SDS011;61307;49.628;-1.624;2023-05-28T05:42:35;5.55;;;2.90;;
73120;SDS011;61307;49.628;-1.624;2023-05-28T05:45:02;6.55;;;3.15;;
73120;SDS011;61307;49.628;-1.624;2023-05-28T05:47:31;7.38;;;2.80;;
73120;SDS011;61307;49.628;-1.624;2023-05-28T05:49:57;7.18;;;3.42;;
73120;SDS011;61307;49.628;-1.624;2023-05-28T05:52:25;6.15;;;3.10;;
73120;SDS011;61307;49.628;-1.624;2023-05-28T05:54:51;6.95;;;2.88;;
73120;SDS011;61307;49.628;-1.624;2023-05-28T05:57:21;6.22;;;3.05;;
73120;SDS011;61307;49.628;-1.624;2023-05-28T05:59:49;5.82;;;2.95;;
73120;SDS011;61307;49.628;-1.624;2023-05-28T06:02:16;5.95;;;3.28;;
73120;SDS011;61307;49.628;-1.624;2023-05-28T06:04:43;5.85;;;2.78;;
73120;SDS011;61307;49.628;-1.624;2023-05-28T06:07:10;4.85;;;2.65;;
73120;SDS011;61307;49.628;-1.624;2023-05-28T06:09:37;7.05;;;3.20;;
73120;SDS011;61307;49.628;-1.624;2023-05-28T06:12:04;5.82;;;3.30;;
73120;SDS011;61307;49.628;-1.624;2023-05-28T06:14:32;8.50;;;3.40;;
73120;SDS011;61307;49.628;-1.624;2023-05-28T06:16:59;7.25;;;3.25;;
73120;SDS011;61307;49.628;-1.624;2023-05-28T06:19:26;8.50;;;3.25;;
73120;SDS011;61307;49.628;-1.624;2023-05-28T06:21:54;8.10;;;3.30;;
73120;SDS011;61307;49.628;-1.624;2023-05-28T06:24:21;5.68;;;2.85;;
73120;SDS011;61307;49.628;-1.624;2023-05-28T06:26:48;6.03;;;3.38;;
73120;SDS011;61307;49.628;-1.624;2023-05-28T06:29:16;8.75;;;3.15;;
73120;SDS011;61307;49.628;-1.624;2023-05-28T06:31:44;8.57;;;3.05;;
73120;SDS011;61307;49.628;-1.624;2023-05-28T06:34:11;6.65;;;3.28;;
73120;SDS011;61307;49.628;-1.624;2023-05-28T06:36:38;6.97;;;3.35;;
73120;SDS011;61307;49.628;-1.624;2023-05-28T06:39:05;6.88;;;3.10;;
73120;SDS011;61307;49.628;-1.624;2023-05-28T06:41:32;6.47;;;3.38;;
73120;SDS011;61307;49.628;-1.624;2023-05-28T06:43:59;7.15;;;3.05;;
73120;SDS011;61307;49.628;-1.624;2023-05-28T06:46:26;5.55;;;3.00;;
73120;SDS011;61307;49.628;-1.624;2023-05-28T06:48:55;7.25;;;3.30;;
73120;SDS011;61307;49.628;-1.624;2023-05-28T06:51:22;5.75;;;3.08;;
73120;SDS011;61307;49.628;-1.624;2023-05-28T06:53:49;8.90;;;3.50;;
73120;SDS011;61307;49.628;-1.624;2023-05-28T06:56:16;6.60;;;3.15;;
73120;SDS011;61307;49.628;-1.624;2023-05-28T06:58:43;7.00;;;3.60;;
73120;SDS011;61307;49.628;-1.624;2023-05-28T07:01:10;6.05;;;3.40;;
73120;SDS011;61307;49.628;-1.624;2023-05-28T07:03:37;7.45;;;3.28;;
73120;SDS011;61307;49.628;-1.624;2023-05-28T07:06:06;5.35;;;3.03;;
73120;SDS011;61307;49.628;-1.624;2023-05-28T07:08:33;6.47;;;3.13;;
73120;SDS011;61307;49.628;-1.624;2023-05-28T07:11:00;6.38;;;3.28;;
73120;SDS011;61307;49.628;-1.624;2023-05-28T07:13:26;8.50;;;2.92;;
73120;SDS011;61307;49.628;-1.624;2023-05-28T07:15:53;7.10;;;3.00;;
73120;SDS011;61307;49.628;-1.624;2023-05-28T07:18:20;6.65;;;3.13;;
73120;SDS011;61307;49.628;-1.624;2023-05-28T07:20:49;6.00;;;3.35;;
73120;SDS011;61307;49.628;-1.624;2023-05-28T07:23:17;5.80;;;3.20;;
73120;SDS011;61307;49.628;-1.624;2023-05-28T07:25:44;8.55;;;2.80;;
73120;SDS011;61307;49.628;-1.624;2023-05-28T07:28:11;7.00;;;3.15;;
73120;SDS011;61307;49.628;-1.624;2023-05-28T07:30:40;6.35;;;3.03;;
73120;SDS011;61307;49.628;-1.624;2023-05-28T07:33:07;4.45;;;2.53;;
73120;SDS011;61307;49.628;-1.624;2023-05-28T07:35:35;6.38;;;3.17;;
73120;SDS011;61307;49.628;-1.624;2023-05-28T07:38:02;7.85;;;3.40;;
73120;SDS011;61307;49.628;-1.624;2023-05-28T07:40:30;7.93;;;3.78;;
73120;SDS011;61307;49.628;-1.624;2023-05-28T07:42:57;6.50;;;3.28;;
73120;SDS011;61307;49.628;-1.624;2023-05-28T07:45:24;8.13;;;3.60;;
73120;SDS011;61307;49.628;-1.624;2023-05-28T07:47:51;7.72;;;2.90;;
73120;SDS011;61307;49.628;-1.624;2023-05-28T07:50:18;6.45;;;3.10;;
73120;SDS011;61307;49.628;-1.624;2023-05-28T07:52:45;7.57;;;3.40;;
73120;SDS011;61307;49.628;-1.624;2023-05-28T07:55:12;4.45;;;2.67;;
73120;SDS011;61307;49.628;-1.624;2023-05-28T07:57:40;4.88;;;3.30;;
73120;SDS011;61307;49.628;-1.624;2023-05-28T08:00:07;8.15;;;3.45;;
73120;SDS011;61307;49.628;-1.624;2023-05-28T08:02:37;5.18;;;3.28;;
73120;SDS011;61307;49.628;-1.624;2023-05-28T08:05:05;6.47;;;3.40;;
73120;SDS011;61307;49.628;-1.624;2023-05-28T08:07:32;7.38;;;3.45;;
73120;SDS011;61307;49.628;-1.624;2023-05-28T08:09:59;9.10;;;3.40;;
73120;SDS011;61307;49.628;-1.624;2023-05-28T08:12:26;9.80;;;3.45;;
73120;SDS011;61307;49.628;-1.624;2023-05-28T08:14:55;6.43;;;3.17;;
73120;SDS011;61307;49.628;-1.624;2023-05-28T08:17:22;6.85;;;3.30;;
73120;SDS011;61307;49.628;-1.624;2023-05-28T08:19:49;8.00;;;3.40;;
73120;SDS011;61307;49.628;-1.624;2023-05-28T08:22:17;6.75;;;3.10;;
73120;SDS011;61307;49.628;-1.624;2023-05-28T08:24:43;7.72;;;3.47;;
73120;SDS011;61307;49.628;-1.624;2023-05-28T08:27:10;9.00;;;3.35;;
73120;SDS011;61307;49.628;-1.624;2023-05-28T08:29:37;4.00;;;3.08;;
73120;SDS011;61307;49.628;-1.624;2023-05-28T08:32:06;5.68;;;2.67;;
73120;SDS011;61307;49.628;-1.624;2023-05-28T08:34:33;6.82;;;3.45;;
73120;SDS011;61307;49.628;-1.624;2023-05-28T08:37:01;6.05;;;3.22;;
73120;SDS011;61307;49.628;-1.624;2023-05-28T08:39:29;5.78;;;3.17;;
73120;SDS011;61307;49.628;-1.624;2023-05-28T08:41:56;6.72;;;3.38;;
73120;SDS011;61307;49.628;-1.624;2023-05-28T08:44:23;8.60;;;3.45;;
73120;SDS011;61307;49.628;-1.624;2023-05-28T08:46:50;10.45;;;3.95;;
73120;SDS011;61307;49.628;-1.624;2023-05-28T08:49:19;6.55;;;3.40;;
73120;SDS011;61307;49.628;-1.624;2023-05-28T08:51:50;8.75;;;3.78;;
73120;SDS011;61307;49.628;-1.624;2023-05-28T08:54:20;6.50;;;3.70;;
73120;SDS011;61307;49.628;-1.624;2023-05-28T08:56:47;5.97;;;3.25;;
73120;SDS011;61307;49.628;-1.624;2023-05-28T08:59:14;7.03;;;3.13;;
73120;SDS011;61307;49.628;-1.624;2023-05-28T09:01:42;7.85;;;3.42;;
73120;SDS011;61307;49.628;-1.624;2023-05-28T09:04:10;8.40;;;3.90;;
73120;SDS011;61307;49.628;-1.624;2023-05-28T09:06:38;7.63;;;3.30;;
73120;SDS011;61307;49.628;-1.624;2023-05-28T09:09:06;5.95;;;3.20;;
73120;SDS011;61307;49.628;-1.624;2023-05-28T09:11:34;7.15;;;3.58;;
73120;SDS011;61307;49.628;-1.624;2023-05-28T09:14:07;9.93;;;3.65;;
73120;SDS011;61307;49.628;-1.624;2023-05-28T09:16:39;8.65;;;3.50;;
73120;SDS011;61307;49.628;-1.624;2023-05-28T09:19:07;6.53;;;3.40;;
73120;SDS011;61307;49.628;-1.624;2023-05-28T09:21:36;5.65;;;3.35;;
73120;SDS011;61307;49.628;-1.624;2023-05-28T09:24:05;6.53;;;3.08;;
73120;SDS011;61307;49.628;-1.624;2023-05-28T09:26:32;7.68;;;3.50;;
73120;SDS011;61307;49.628;-1.624;2023-05-28T09:28:59;6.22;;;3.30;;
73120;SDS011;61307;49.628;-1.624;2023-05-28T09:31:28;7.55;;;4.05;;
73120;SDS011;61307;49.628;-1.624;2023-05-28T09:33:58;6.43;;;3.40;;
73120;SDS011;61307;49.628;-1.624;2023-05-28T09:36:28;6.43;;;3.40;;
73120;SDS011;61307;49.628;-1.624;2023-05-28T09:38:55;9.60;;;3.95;;
73120;SDS011;61307;49.628;-1.624;2023-05-28T09:41:24;7.57;;;3.50;;
73120;SDS011;61307;49.628;-1.624;2023-05-28T09:43:59;8.57;;;3.90;;
73120;SDS011;61307;49.628;-1.624;2023-05-28T09:46:27;8.13;;;3.70;;
73120;SDS011;61307;49.628;-1.624;2023-05-28T09:48:55;8.85;;;3.80;;
73120;SDS011;61307;49.628;-1.624;2023-05-28T09:51:24;7.38;;;3.30;;
73120;SDS011;61307;49.628;-1.624;2023-05-28T09:53:55;8.15;;;3.40;;
73120;SDS011;61307;49.628;-1.624;2023-05-28T09:56:26;7.32;;;3.85;;
73120;SDS011;61307;49.628;-1.624;2023-05-28T09:58:56;7.65;;;3.78;;
73120;SDS011;61307;49.628;-1.624;2023-05-28T10:01:25;7.13;;;3.50;;
73120;SDS011;61307;49.628;-1.624;2023-05-28T10:03:58;8.75;;;4.20;;
73120;SDS011;61307;49.628;-1.624;2023-05-28T10:06:31;10.15;;;3.70;;
73120;SDS011;61307;49.628;-1.624;2023-05-28T10:09:00;7.00;;;3.58;;
73120;SDS011;61307;49.628;-1.624;2023-05-28T10:11:29;6.70;;;3.28;;
73120;SDS011;61307;49.628;-1.624;2023-05-28T10:14:00;6.15;;;3.60;;
73120;SDS011;61307;49.628;-1.624;2023-05-28T10:16:28;7.57;;;4.07;;
73120;SDS011;61307;49.628;-1.624;2023-05-28T10:18:55;11.75;;;3.67;;
73120;SDS011;61307;49.628;-1.624;2023-05-28T10:21:23;8.60;;;3.70;;
73120;SDS011;61307;49.628;-1.624;2023-05-28T10:23:51;6.18;;;3.55;;
73120;SDS011;61307;49.628;-1.624;2023-05-28T10:26:18;8.13;;;4.35;;
73120;SDS011;61307;49.628;-1.624;2023-05-28T10:28:53;8.50;;;3.80;;
73120;SDS011;61307;49.628;-1.624;2023-05-28T10:31:21;6.90;;;4.38;;
73120;SDS011;61307;49.628;-1.624;2023-05-28T10:33:48;9.65;;;4.18;;
73120;SDS011;61307;49.628;-1.624;2023-05-28T10:36:16;10.35;;;4.13;;
73120;SDS011;61307;49.628;-1.624;2023-05-28T10:38:43;9.80;;;4.15;;
73120;SDS011;61307;49.628;-1.624;2023-05-28T10:41:17;10.27;;;4.25;;
73120;SDS011;61307;49.628;-1.624;2023-05-28T10:43:46;8.32;;;4.00;;
73120;SDS011;61307;49.628;-1.624;2023-05-28T10:46:18;10.63;;;4.63;;
73120;SDS011;61307;49.628;-1.624;2023-05-28T10:49:05;9.38;;;4.50;;
73120;SDS011;61307;49.628;-1.624;2023-05-28T10:51:45;10.63;;;4.63;;
73120;SDS011;61307;49.628;-1.624;2023-05-28T10:54:20;10.98;;;4.25;;
73120;SDS011;61307;49.628;-1.624;2023-05-28T10:57:08;8.07;;;4.43;;
73120;SDS011;61307;49.628;-1.624;2023-05-28T10:59:36;6.78;;;3.65;;
73120;SDS011;61307;49.628;-1.624;2023-05-28T11:02:12;10.02;;;4.47;;
73120;SDS011;61307;49.628;-1.624;2023-05-28T11:04:42;9.10;;;4.35;;
73120;SDS011;61307;49.628;-1.624;2023-05-28T11:07:10;7.10;;;3.85;;
73120;SDS011;61307;49.628;-1.624;2023-05-28T11:09:39;9.75;;;4.95;;
73120;SDS011;61307;49.628;-1.624;2023-05-28T11:12:06;8.65;;;4.28;;
73120;SDS011;61307;49.628;-1.624;2023-05-28T11:14:34;10.70;;;4.20;;
73120;SDS011;61307;49.628;-1.624;2023-05-28T11:17:05;9.07;;;4.75;;
73120;SDS011;61307;49.628;-1.624;2023-05-28T11:19:42;7.80;;;4.38;;
73120;SDS011;61307;49.628;-1.624;2023-05-28T11:22:09;10.30;;;4.95;;
73120;SDS011;61307;49.628;-1.624;2023-05-28T11:27:32;7.90;;;4.40;;
73120;SDS011;61307;49.628;-1.624;2023-05-28T11:30:02;9.30;;;4.50;;
73120;SDS011;61307;49.628;-1.624;2023-05-28T11:32:33;8.75;;;4.45;;
73120;SDS011;61307;49.628;-1.624;2023-05-28T11:35:02;11.00;;;4.95;;
73120;SDS011;61307;49.628;-1.624;2023-05-28T11:37:30;8.10;;;4.40;;
73120;SDS011;61307;49.628;-1.624;2023-05-28T11:39:58;10.38;;;4.50;;
73120;SDS011;61307;49.628;-1.624;2023-05-28T11:42:26;9.68;;;4.88;;
73120;SDS011;61307;49.628;-1.624;2023-05-28T11:44:55;8.75;;;5.22;;
73120;SDS011;61307;49.628;-1.624;2023-05-28T11:47:22;11.40;;;4.85;;
73120;SDS011;61307;49.628;-1.624;2023-05-28T11:49:51;10.32;;;4.97;;
73120;SDS011;61307;49.628;-1.624;2023-05-28T11:52:20;12.48;;;5.68;;
73120;SDS011;61307;49.628;-1.624;2023-05-28T11:54:52;9.18;;;5.47;;
73120;SDS011;61307;49.628;-1.624;2023-05-28T11:57:20;10.15;;;5.15;;
73120;SDS011;61307;49.628;-1.624;2023-05-28T11:59:55;11.30;;;5.85;;
73120;SDS011;61307;49.628;-1.624;2023-05-28T12:02:25;12.63;;;5.68;;
73120;SDS011;61307;49.628;-1.624;2023-05-28T12:04:52;10.75;;;5.40;;
73120;SDS011;61307;49.628;-1.624;2023-05-28T12:07:22;10.32;;;5.22;;
73120;SDS011;61307;49.628;-1.624;2023-05-28T12:10:01;12.50;;;5.75;;
73120;SDS011;61307;49.628;-1.624;2023-05-28T12:12:31;11.93;;;5.03;;
73120;SDS011;61307;49.628;-1.624;2023-05-28T12:15:00;11.00;;;5.38;;
73120;SDS011;61307;49.628;-1.624;2023-05-28T12:17:32;10.85;;;5.53;;
73120;SDS011;61307;49.628;-1.624;2023-05-28T12:20:03;10.35;;;5.38;;
73120;SDS011;61307;49.628;-1.624;2023-05-28T12:22:33;8.57;;;4.82;;
73120;SDS011;61307;49.628;-1.624;2023-05-28T12:25:00;11.32;;;5.60;;
73120;SDS011;61307;49.628;-1.624;2023-05-28T12:27:28;9.85;;;6.10;;
73120;SDS011;61307;49.628;-1.624;2023-05-28T12:29:55;11.57;;;5.70;;
73120;SDS011;61307;49.628;-1.624;2023-05-28T12:32:22;10.80;;;5.05;;
73120;SDS011;61307;49.628;-1.624;2023-05-28T12:34:49;11.60;;;5.10;;
73120;SDS011;61307;49.628;-1.624;2023-05-28T12:37:16;10.32;;;5.45;;
73120;SDS011;61307;49.628;-1.624;2023-05-28T12:39:45;10.48;;;5.80;;
73120;SDS011;61307;49.628;-1.624;2023-05-28T12:42:12;13.85;;;5.88;;
73120;SDS011;61307;49.628;-1.624;2023-05-28T12:44:39;8.43;;;5.50;;
73120;SDS011;61307;49.628;-1.624;2023-05-28T12:47:06;11.00;;;5.95;;
73120;SDS011;61307;49.628;-1.624;2023-05-28T12:49:33;11.18;;;5.85;;
73120;SDS011;61307;49.628;-1.624;2023-05-28T12:52:00;11.38;;;5.80;;
73120;SDS011;61307;49.628;-1.624;2023-05-28T12:54:27;11.25;;;5.68;;
73120;SDS011;61307;49.628;-1.624;2023-05-28T12:56:55;11.85;;;5.55;;
73120;SDS011;61307;49.628;-1.624;2023-05-28T12:59:23;8.95;;;5.43;;
73120;SDS011;61307;49.628;-1.624;2023-05-28T13:01:50;10.48;;;5.90;;
73120;SDS011;61307;49.628;-1.624;2023-05-28T13:04:19;13.27;;;5.20;;
73120;SDS011;61307;49.628;-1.624;2023-05-28T13:06:47;10.73;;;5.65;;
73120;SDS011;61307;49.628;-1.624;2023-05-28T13:09:15;11.93;;;6.20;;
73120;SDS011;61307;49.628;-1.624;2023-05-28T13:11:42;13.57;;;5.80;;
73120;SDS011;61307;49.628;-1.624;2023-05-28T13:14:11;9.68;;;5.50;;
73120;SDS011;61307;49.628;-1.624;2023-05-28T13:16:38;10.75;;;5.88;;
73120;SDS011;61307;49.628;-1.624;2023-05-28T13:19:05;13.88;;;5.78;;
73120;SDS011;61307;49.628;-1.624;2023-05-28T13:21:32;9.90;;;5.53;;
73120;SDS011;61307;49.628;-1.624;2023-05-28T13:24:00;12.05;;;5.50;;
73120;SDS011;61307;49.628;-1.624;2023-05-28T13:26:28;9.70;;;5.82;;
73120;SDS011;61307;49.628;-1.624;2023-05-28T13:28:58;12.05;;;5.60;;
73120;SDS011;61307;49.628;-1.624;2023-05-28T13:31:26;11.70;;;5.70;;
73120;SDS011;61307;49.628;-1.624;2023-05-28T13:33:53;8.63;;;5.18;;
73120;SDS011;61307;49.628;-1.624;2023-05-28T13:36:20;11.15;;;6.05;;
73120;SDS011;61307;49.628;-1.624;2023-05-28T13:38:46;12.02;;;5.82;;
73120;SDS011;61307;49.628;-1.624;2023-05-28T13:41:13;12.30;;;5.55;;
73120;SDS011;61307;49.628;-1.624;2023-05-28T13:43:41;10.93;;;6.10;;
73120;SDS011;61307;49.628;-1.624;2023-05-28T13:46:08;11.68;;;5.43;;
73120;SDS011;61307;49.628;-1.624;2023-05-28T13:48:37;9.63;;;5.22;;
73120;SDS011;61307;49.628;-1.624;2023-05-28T13:51:04;11.95;;;6.13;;
73120;SDS011;61307;49.628;-1.624;2023-05-28T13:53:31;10.82;;;5.47;;
73120;SDS011;61307;49.628;-1.624;2023-05-28T13:55:58;9.60;;;5.25;;
73120;SDS011;61307;49.628;-1.624;2023-05-28T13:58:25;9.82;;;5.78;;
73120;SDS011;61307;49.628;-1.624;2023-05-28T14:00:52;10.55;;;6.03;;
73120;SDS011;61307;49.628;-1.624;2023-05-28T14:03:19;8.77;;;5.47;;
73120;SDS011;61307;49.628;-1.624;2023-05-28T14:05:48;9.73;;;5.53;;
73120;SDS011;61307;49.628;-1.624;2023-05-28T14:08:14;8.65;;;5.70;;
73120;SDS011;61307;49.628;-1.624;2023-05-28T14:10:41;9.88;;;5.40;;
73120;SDS011;61307;49.628;-1.624;2023-05-28T14:13:08;12.18;;;5.88;;
73120;SDS011;61307;49.628;-1.624;2023-05-28T14:15:35;10.27;;;5.20;;
73120;SDS011;61307;49.628;-1.624;2023-05-28T14:18:02;10.07;;;5.63;;
73120;SDS011;61307;49.628;-1.624;2023-05-28T14:20:31;12.95;;;5.65;;
73120;SDS011;61307;49.628;-1.624;2023-05-28T14:23:01;9.10;;;5.05;;
73120;SDS011;61307;49.628;-1.624;2023-05-28T14:25:28;11.75;;;5.60;;
73120;SDS011;61307;49.628;-1.624;2023-05-28T14:27:55;6.82;;;5.07;;
73120;SDS011;61307;49.628;-1.624;2023-05-28T14:30:22;11.38;;;5.63;;
73120;SDS011;61307;49.628;-1.624;2023-05-28T14:32:49;11.18;;;5.50;;
73120;SDS011;61307;49.628;-1.624;2023-05-28T14:35:16;8.18;;;5.43;;
73120;SDS011;61307;49.628;-1.624;2023-05-28T14:37:44;10.45;;;6.03;;